sensor_id;sensor_type;location;lat;lon;timestamp;P1;durP1;ratioP1;P2;durP2;ratioP2
5137;SDS011;53959;53.626;11.410;2023-06-10T00:02:10;10.03;;;2.60;;
5137;SDS011;53959;53.626;11.410;2023-06-10T00:04:35;7.50;;;3.00;;
5137;SDS011;53959;53.626;11.410;2023-06-10T00:07:04;11.03;;;2.90;;
5137;SDS011;53959;53.626;11.410;2023-06-10T00:09:34;15.70;;;4.03;;
5137;SDS011;53959;53.626;11.410;2023-06-10T00:12:06;5.37;;;2.60;;
5137;SDS011;53959;53.626;11.410;2023-06-10T00:14:36;4.87;;;2.67;;
5137;SDS011;53959;53.626;11.410;2023-06-10T00:17:03;5.83;;;2.63;;
5137;SDS011;53959;53.626;11.410;2023-06-10T00:19:29;10.70;;;3.33;;
5137;SDS011;53959;53.626;11.410;2023-06-10T00:21:58;6.33;;;2.27;;
5137;SDS011;53959;53.626;11.410;2023-06-10T00:24:24;6.33;;;2.27;;
5137;SDS011;53959;53.626;11.410;2023-06-10T00:26:49;11.90;;;3.23;;
5137;SDS011;53959;53.626;11.410;2023-06-10T00:29:15;4.57;;;2.03;;
5137;SDS011;53959;53.626;11.410;2023-06-10T00:31:40;9.47;;;2.30;;
5137;SDS011;53959;53.626;11.410;2023-06-10T00:34:06;9.10;;;2.83;;
5137;SDS011;53959;53.626;11.410;2023-06-10T00:36:32;15.53;;;3.67;;
5137;SDS011;53959;53.626;11.410;2023-06-10T00:38:57;7.80;;;2.73;;
5137;SDS011;53959;53.626;11.410;2023-06-10T00:41:23;7.93;;;3.37;;
5137;SDS011;53959;53.626;11.410;2023-06-10T00:43:49;11.53;;;3.07;;
5137;SDS011;53959;53.626;11.410;2023-06-10T00:46:14;5.67;;;2.43;;
5137;SDS011;53959;53.626;11.410;2023-06-10T00:48:40;20.40;;;3.10;;
5137;SDS011;53959;53.626;11.410;2023-06-10T00:51:08;14.27;;;3.33;;
5137;SDS011;53959;53.626;11.410;2023-06-10T00:53:34;7.70;;;2.50;;
5137;SDS011;53959;53.626;11.410;2023-06-10T00:56:02;7.67;;;2.70;;
5137;SDS011;53959;53.626;11.410;2023-06-10T00:58:28;9.03;;;2.30;;
5137;SDS011;53959;53.626;11.410;2023-06-10T01:00:54;9.80;;;2.77;;
5137;SDS011;53959;53.626;11.410;2023-06-10T01:03:19;11.53;;;2.97;;
5137;SDS011;53959;53.626;11.410;2023-06-10T01:05:53;17.73;;;3.20;;
5137;SDS011;53959;53.626;11.410;2023-06-10T01:08:28;6.50;;;2.40;;
5137;SDS011;53959;53.626;11.410;2023-06-10T01:11:00;8.20;;;2.60;;
5137;SDS011;53959;53.626;11.410;2023-06-10T01:13:29;4.80;;;2.07;;
5137;SDS011;53959;53.626;11.410;2023-06-10T01:15:57;14.40;;;3.57;;
5137;SDS011;53959;53.626;11.410;2023-06-10T01:18:29;9.50;;;3.37;;
5137;SDS011;53959;53.626;11.410;2023-06-10T01:20:56;12.23;;;2.17;;
5137;SDS011;53959;53.626;11.410;2023-06-10T01:23:22;8.50;;;2.20;;
5137;SDS011;53959;53.626;11.410;2023-06-10T01:26:01;13.27;;;2.37;;
5137;SDS011;53959;53.626;11.410;2023-06-10T01:28:44;6.07;;;2.10;;
5137;SDS011;53959;53.626;11.410;2023-06-10T01:33:59;4.27;;;2.20;;
5137;SDS011;53959;53.626;11.410;2023-06-10T01:36:25;8.27;;;2.47;;
5137;SDS011;53959;53.626;11.410;2023-06-10T01:38:52;15.10;;;2.30;;
5137;SDS011;53959;53.626;11.410;2023-06-10T01:41:19;2.80;;;1.90;;
5137;SDS011;53959;53.626;11.410;2023-06-10T01:43:46;8.63;;;3.00;;
5137;SDS011;53959;53.626;11.410;2023-06-10T01:46:13;8.23;;;2.33;;
5137;SDS011;53959;53.626;11.410;2023-06-10T01:48:39;5.20;;;2.30;;
5137;SDS011;53959;53.626;11.410;2023-06-10T01:51:04;7.33;;;2.77;;
5137;SDS011;53959;53.626;11.410;2023-06-10T01:53:30;4.23;;;2.50;;
5137;SDS011;53959;53.626;11.410;2023-06-10T01:55:55;10.00;;;2.40;;
5137;SDS011;53959;53.626;11.410;2023-06-10T01:58:22;10.77;;;2.20;;
5137;SDS011;53959;53.626;11.410;2023-06-10T02:00:47;11.70;;;3.20;;
5137;SDS011;53959;53.626;11.410;2023-06-10T02:03:12;4.20;;;2.30;;
5137;SDS011;53959;53.626;11.410;2023-06-10T02:05:38;5.10;;;2.40;;
5137;SDS011;53959;53.626;11.410;2023-06-10T02:08:04;8.67;;;2.37;;
5137;SDS011;53959;53.626;11.410;2023-06-10T02:10:30;6.20;;;3.73;;
5137;SDS011;53959;53.626;11.410;2023-06-10T02:12:56;11.17;;;2.80;;
5137;SDS011;53959;53.626;11.410;2023-06-10T02:15:21;13.57;;;2.87;;
5137;SDS011;53959;53.626;11.410;2023-06-10T02:17:46;14.43;;;2.70;;
5137;SDS011;53959;53.626;11.410;2023-06-10T02:20:14;6.20;;;2.40;;
5137;SDS011;53959;53.626;11.410;2023-06-10T02:22:39;11.57;;;2.33;;
5137;SDS011;53959;53.626;11.410;2023-06-10T02:25:07;6.80;;;1.87;;
5137;SDS011;53959;53.626;11.410;2023-06-10T02:27:32;10.37;;;3.10;;
5137;SDS011;53959;53.626;11.410;2023-06-10T02:29:58;9.57;;;2.30;;
5137;SDS011;53959;53.626;11.410;2023-06-10T02:32:24;8.57;;;2.60;;
5137;SDS011;53959;53.626;11.410;2023-06-10T02:34:51;10.40;;;2.47;;
5137;SDS011;53959;53.626;11.410;2023-06-10T02:37:17;6.40;;;2.20;;
5137;SDS011;53959;53.626;11.410;2023-06-10T02:39:43;5.80;;;2.00;;
5137;SDS011;53959;53.626;11.410;2023-06-10T02:42:10;9.13;;;2.53;;
5137;SDS011;53959;53.626;11.410;2023-06-10T02:44:36;12.13;;;2.73;;
5137;SDS011;53959;53.626;11.410;2023-06-10T02:47:01;7.07;;;2.33;;
5137;SDS011;53959;53.626;11.410;2023-06-10T02:49:27;6.93;;;2.20;;
5137;SDS011;53959;53.626;11.410;2023-06-10T02:51:53;11.37;;;2.40;;
5137;SDS011;53959;53.626;11.410;2023-06-10T02:54:20;15.33;;;2.37;;
5137;SDS011;53959;53.626;11.410;2023-06-10T02:56:46;12.67;;;2.40;;
5137;SDS011;53959;53.626;11.410;2023-06-10T02:59:18;5.10;;;2.03;;
5137;SDS011;53959;53.626;11.410;2023-06-10T03:01:44;11.50;;;3.27;;
5137;SDS011;53959;53.626;11.410;2023-06-10T03:04:10;7.50;;;2.60;;
5137;SDS011;53959;53.626;11.410;2023-06-10T03:06:39;7.30;;;2.40;;
5137;SDS011;53959;53.626;11.410;2023-06-10T03:09:24;8.67;;;2.30;;
5137;SDS011;53959;53.626;11.410;2023-06-10T03:11:53;11.30;;;2.30;;
5137;SDS011;53959;53.626;11.410;2023-06-10T03:14:18;6.73;;;3.07;;
5137;SDS011;53959;53.626;11.410;2023-06-10T03:16:44;18.40;;;3.07;;
5137;SDS011;53959;53.626;11.410;2023-06-10T03:19:11;3.43;;;1.87;;
5137;SDS011;53959;53.626;11.410;2023-06-10T03:21:38;7.10;;;2.00;;
5137;SDS011;53959;53.626;11.410;2023-06-10T03:24:06;6.23;;;2.00;;
5137;SDS011;53959;53.626;11.410;2023-06-10T03:26:34;4.30;;;2.33;;
5137;SDS011;53959;53.626;11.410;2023-06-10T03:29:00;6.53;;;2.40;;
5137;SDS011;53959;53.626;11.410;2023-06-10T03:31:26;9.00;;;2.50;;
5137;SDS011;53959;53.626;11.410;2023-06-10T03:33:53;9.13;;;2.80;;
5137;SDS011;53959;53.626;11.410;2023-06-10T03:36:18;6.83;;;2.00;;
5137;SDS011;53959;53.626;11.410;2023-06-10T03:38:44;15.53;;;2.97;;
5137;SDS011;53959;53.626;11.410;2023-06-10T03:41:09;13.53;;;3.07;;
5137;SDS011;53959;53.626;11.410;2023-06-10T03:43:36;10.07;;;2.70;;
5137;SDS011;53959;53.626;11.410;2023-06-10T03:46:04;7.73;;;2.53;;
5137;SDS011;53959;53.626;11.410;2023-06-10T03:48:29;8.03;;;2.77;;
5137;SDS011;53959;53.626;11.410;2023-06-10T03:50:56;8.80;;;2.47;;
5137;SDS011;53959;53.626;11.410;2023-06-10T03:53:21;8.20;;;2.17;;
5137;SDS011;53959;53.626;11.410;2023-06-10T03:55:47;11.53;;;2.07;;
5137;SDS011;53959;53.626;11.410;2023-06-10T03:58:15;14.77;;;2.93;;
5137;SDS011;53959;53.626;11.410;2023-06-10T04:00:41;7.30;;;2.47;;
5137;SDS011;53959;53.626;11.410;2023-06-10T04:03:07;12.33;;;2.87;;
5137;SDS011;53959;53.626;11.410;2023-06-10T04:05:38;8.63;;;2.40;;
5137;SDS011;53959;53.626;11.410;2023-06-10T04:08:03;8.20;;;2.60;;
5137;SDS011;53959;53.626;11.410;2023-06-10T04:10:30;8.27;;;2.50;;
5137;SDS011;53959;53.626;11.410;2023-06-10T04:12:55;19.77;;;3.03;;
5137;SDS011;53959;53.626;11.410;2023-06-10T04:15:22;14.40;;;3.00;;
5137;SDS011;53959;53.626;11.410;2023-06-10T04:17:48;15.40;;;2.07;;
5137;SDS011;53959;53.626;11.410;2023-06-10T04:20:14;7.60;;;2.47;;
5137;SDS011;53959;53.626;11.410;2023-06-10T04:22:43;13.90;;;3.23;;
5137;SDS011;53959;53.626;11.410;2023-06-10T04:25:10;6.57;;;2.50;;
5137;SDS011;53959;53.626;11.410;2023-06-10T04:27:35;5.57;;;1.70;;
5137;SDS011;53959;53.626;11.410;2023-06-10T04:30:01;25.20;;;2.63;;
5137;SDS011;53959;53.626;11.410;2023-06-10T04:32:28;6.60;;;2.57;;
5137;SDS011;53959;53.626;11.410;2023-06-10T04:34:53;11.50;;;2.80;;
5137;SDS011;53959;53.626;11.410;2023-06-10T04:37:19;10.63;;;2.43;;
5137;SDS011;53959;53.626;11.410;2023-06-10T04:39:45;9.30;;;2.30;;
5137;SDS011;53959;53.626;11.410;2023-06-10T04:42:11;8.27;;;2.90;;
5137;SDS011;53959;53.626;11.410;2023-06-10T04:44:37;11.80;;;1.97;;
5137;SDS011;53959;53.626;11.410;2023-06-10T04:47:04;7.20;;;2.07;;
5137;SDS011;53959;53.626;11.410;2023-06-10T04:49:29;11.37;;;2.80;;
5137;SDS011;53959;53.626;11.410;2023-06-10T04:51:54;8.43;;;1.93;;
5137;SDS011;53959;53.626;11.410;2023-06-10T04:54:20;9.53;;;2.30;;
5137;SDS011;53959;53.626;11.410;2023-06-10T04:56:45;11.23;;;2.40;;
5137;SDS011;53959;53.626;11.410;2023-06-10T04:59:11;13.77;;;3.00;;
5137;SDS011;53959;53.626;11.410;2023-06-10T05:01:37;9.93;;;2.00;;
5137;SDS011;53959;53.626;11.410;2023-06-10T05:04:02;5.70;;;2.33;;
5137;SDS011;53959;53.626;11.410;2023-06-10T05:06:29;8.17;;;2.03;;
5137;SDS011;53959;53.626;11.410;2023-06-10T05:08:54;12.47;;;2.50;;
5137;SDS011;53959;53.626;11.410;2023-06-10T05:11:20;4.60;;;1.80;;
5137;SDS011;53959;53.626;11.410;2023-06-10T05:13:45;10.27;;;2.53;;
5137;SDS011;53959;53.626;11.410;2023-06-10T05:16:10;12.70;;;1.93;;
5137;SDS011;53959;53.626;11.410;2023-06-10T05:18:36;8.20;;;2.40;;
5137;SDS011;53959;53.626;11.410;2023-06-10T05:21:02;14.80;;;2.90;;
5137;SDS011;53959;53.626;11.410;2023-06-10T05:23:27;5.30;;;2.20;;
5137;SDS011;53959;53.626;11.410;2023-06-10T05:25:52;3.80;;;2.20;;
5137;SDS011;53959;53.626;11.410;2023-06-10T05:28:19;10.73;;;2.67;;
5137;SDS011;53959;53.626;11.410;2023-06-10T05:30:44;11.73;;;2.23;;
5137;SDS011;53959;53.626;11.410;2023-06-10T05:33:10;10.30;;;2.43;;
5137;SDS011;53959;53.626;11.410;2023-06-10T05:35:35;4.67;;;1.90;;
5137;SDS011;53959;53.626;11.410;2023-06-10T05:38:00;12.53;;;2.90;;
5137;SDS011;53959;53.626;11.410;2023-06-10T05:40:26;12.03;;;2.67;;
5137;SDS011;53959;53.626;11.410;2023-06-10T05:42:51;9.43;;;3.17;;
5137;SDS011;53959;53.626;11.410;2023-06-10T05:45:16;5.47;;;2.03;;
5137;SDS011;53959;53.626;11.410;2023-06-10T05:47:42;8.97;;;2.60;;
5137;SDS011;53959;53.626;11.410;2023-06-10T05:50:07;7.73;;;2.57;;
5137;SDS011;53959;53.626;11.410;2023-06-10T05:52:34;6.87;;;2.60;;
5137;SDS011;53959;53.626;11.410;2023-06-10T05:55:05;6.93;;;2.40;;
5137;SDS011;53959;53.626;11.410;2023-06-10T05:57:31;11.30;;;2.73;;
5137;SDS011;53959;53.626;11.410;2023-06-10T05:59:56;17.97;;;2.80;;
5137;SDS011;53959;53.626;11.410;2023-06-10T06:02:22;12.97;;;2.33;;
5137;SDS011;53959;53.626;11.410;2023-06-10T06:04:47;7.40;;;2.40;;
5137;SDS011;53959;53.626;11.410;2023-06-10T06:07:12;22.90;;;2.83;;
5137;SDS011;53959;53.626;11.410;2023-06-10T06:09:38;14.90;;;2.67;;
5137;SDS011;53959;53.626;11.410;2023-06-10T06:12:03;10.60;;;2.03;;
5137;SDS011;53959;53.626;11.410;2023-06-10T06:14:30;5.33;;;2.37;;
5137;SDS011;53959;53.626;11.410;2023-06-10T06:16:57;5.00;;;2.00;;
5137;SDS011;53959;53.626;11.410;2023-06-10T06:19:22;6.37;;;2.33;;
5137;SDS011;53959;53.626;11.410;2023-06-10T06:21:47;6.00;;;2.30;;
5137;SDS011;53959;53.626;11.410;2023-06-10T06:24:13;4.37;;;2.23;;
5137;SDS011;53959;53.626;11.410;2023-06-10T06:26:40;7.07;;;1.80;;
5137;SDS011;53959;53.626;11.410;2023-06-10T06:29:05;9.10;;;2.50;;
5137;SDS011;53959;53.626;11.410;2023-06-10T06:31:31;7.60;;;2.47;;
5137;SDS011;53959;53.626;11.410;2023-06-10T06:33:57;9.00;;;2.60;;
5137;SDS011;53959;53.626;11.410;2023-06-10T06:36:22;5.97;;;2.40;;
5137;SDS011;53959;53.626;11.410;2023-06-10T06:38:47;5.93;;;1.97;;
5137;SDS011;53959;53.626;11.410;2023-06-10T06:41:13;11.40;;;2.30;;
5137;SDS011;53959;53.626;11.410;2023-06-10T06:43:38;21.70;;;2.20;;
5137;SDS011;53959;53.626;11.410;2023-06-10T06:46:14;14.13;;;2.97;;
5137;SDS011;53959;53.626;11.410;2023-06-10T06:48:40;4.40;;;2.23;;
5137;SDS011;53959;53.626;11.410;2023-06-10T06:51:06;7.23;;;1.97;;
5137;SDS011;53959;53.626;11.410;2023-06-10T06:53:31;5.30;;;2.30;;
5137;SDS011;53959;53.626;11.410;2023-06-10T06:55:56;14.13;;;2.63;;
5137;SDS011;53959;53.626;11.410;2023-06-10T06:58:22;13.20;;;3.00;;
5137;SDS011;53959;53.626;11.410;2023-06-10T07:00:47;8.73;;;2.47;;
5137;SDS011;53959;53.626;11.410;2023-06-10T07:03:13;6.73;;;1.93;;
5137;SDS011;53959;53.626;11.410;2023-06-10T07:05:38;10.40;;;3.17;;
5137;SDS011;53959;53.626;11.410;2023-06-10T07:08:03;5.60;;;2.10;;
5137;SDS011;53959;53.626;11.410;2023-06-10T07:10:29;8.80;;;3.87;;
5137;SDS011;53959;53.626;11.410;2023-06-10T07:12:54;7.30;;;2.17;;
5137;SDS011;53959;53.626;11.410;2023-06-10T07:15:20;4.50;;;2.27;;
5137;SDS011;53959;53.626;11.410;2023-06-10T07:17:45;9.70;;;2.83;;
5137;SDS011;53959;53.626;11.410;2023-06-10T07:20:11;15.60;;;3.60;;
5137;SDS011;53959;53.626;11.410;2023-06-10T07:22:37;11.57;;;2.93;;
5137;SDS011;53959;53.626;11.410;2023-06-10T07:25:04;9.97;;;2.87;;
5137;SDS011;53959;53.626;11.410;2023-06-10T07:27:30;8.67;;;2.70;;
5137;SDS011;53959;53.626;11.410;2023-06-10T07:29:55;9.77;;;2.60;;
5137;SDS011;53959;53.626;11.410;2023-06-10T07:32:20;5.27;;;2.30;;
5137;SDS011;53959;53.626;11.410;2023-06-10T07:34:47;13.70;;;2.47;;
5137;SDS011;53959;53.626;11.410;2023-06-10T07:37:12;6.70;;;3.20;;
5137;SDS011;53959;53.626;11.410;2023-06-10T07:39:38;7.60;;;2.50;;
5137;SDS011;53959;53.626;11.410;2023-06-10T07:42:03;6.63;;;2.50;;
5137;SDS011;53959;53.626;11.410;2023-06-10T07:44:29;10.53;;;2.97;;
5137;SDS011;53959;53.626;11.410;2023-06-10T07:46:55;7.20;;;2.43;;
5137;SDS011;53959;53.626;11.410;2023-06-10T07:49:20;6.40;;;2.63;;
5137;SDS011;53959;53.626;11.410;2023-06-10T07:51:45;9.60;;;2.30;;
5137;SDS011;53959;53.626;11.410;2023-06-10T07:54:11;11.27;;;2.40;;
5137;SDS011;53959;53.626;11.410;2023-06-10T07:56:37;7.00;;;3.00;;
5137;SDS011;53959;53.626;11.410;2023-06-10T07:59:03;5.70;;;2.50;;
5137;SDS011;53959;53.626;11.410;2023-06-10T08:01:28;10.57;;;2.40;;
5137;SDS011;53959;53.626;11.410;2023-06-10T08:03:55;10.73;;;3.30;;
5137;SDS011;53959;53.626;11.410;2023-06-10T08:06:20;9.70;;;3.00;;
5137;SDS011;53959;53.626;11.410;2023-06-10T08:08:45;8.30;;;3.30;;
5137;SDS011;53959;53.626;11.410;2023-06-10T08:11:12;12.80;;;4.27;;
5137;SDS011;53959;53.626;11.410;2023-06-10T08:13:37;8.00;;;2.90;;
5137;SDS011;53959;53.626;11.410;2023-06-10T08:16:02;12.90;;;2.50;;
5137;SDS011;53959;53.626;11.410;2023-06-10T08:18:28;14.53;;;3.33;;
5137;SDS011;53959;53.626;11.410;2023-06-10T08:20:54;5.23;;;2.80;;
5137;SDS011;53959;53.626;11.410;2023-06-10T08:23:20;6.07;;;2.70;;
5137;SDS011;53959;53.626;11.410;2023-06-10T08:25:45;8.10;;;3.23;;
5137;SDS011;53959;53.626;11.410;2023-06-10T08:28:11;5.40;;;2.77;;
5137;SDS011;53959;53.626;11.410;2023-06-10T08:30:36;9.07;;;2.80;;
5137;SDS011;53959;53.626;11.410;2023-06-10T08:33:01;5.63;;;2.70;;
5137;SDS011;53959;53.626;11.410;2023-06-10T08:35:27;6.80;;;3.00;;
5137;SDS011;53959;53.626;11.410;2023-06-10T08:37:52;12.97;;;3.00;;
5137;SDS011;53959;53.626;11.410;2023-06-10T08:40:18;10.23;;;3.93;;
5137;SDS011;53959;53.626;11.410;2023-06-10T08:42:45;9.20;;;2.80;;
5137;SDS011;53959;53.626;11.410;2023-06-10T08:45:18;8.83;;;4.00;;
5137;SDS011;53959;53.626;11.410;2023-06-10T08:47:46;5.43;;;2.57;;
5137;SDS011;53959;53.626;11.410;2023-06-10T08:50:16;6.90;;;3.70;;
5137;SDS011;53959;53.626;11.410;2023-06-10T08:52:43;3.70;;;2.50;;
5137;SDS011;53959;53.626;11.410;2023-06-10T08:55:13;10.73;;;3.13;;
5137;SDS011;53959;53.626;11.410;2023-06-10T08:57:44;19.53;;;2.47;;
5137;SDS011;53959;53.626;11.410;2023-06-10T09:00:10;10.27;;;2.83;;
5137;SDS011;53959;53.626;11.410;2023-06-10T09:02:38;6.83;;;2.83;;
5137;SDS011;53959;53.626;11.410;2023-06-10T09:05:03;7.43;;;3.07;;
5137;SDS011;53959;53.626;11.410;2023-06-10T09:07:32;12.50;;;3.20;;
5137;SDS011;53959;53.626;11.410;2023-06-10T09:10:01;3.50;;;2.47;;
5137;SDS011;53959;53.626;11.410;2023-06-10T09:12:28;7.57;;;3.47;;
5137;SDS011;53959;53.626;11.410;2023-06-10T09:14:54;12.13;;;3.80;;
5137;SDS011;53959;53.626;11.410;2023-06-10T09:17:21;4.80;;;3.40;;
5137;SDS011;53959;53.626;11.410;2023-06-10T09:19:47;7.83;;;3.00;;
5137;SDS011;53959;53.626;11.410;2023-06-10T09:22:13;8.53;;;3.53;;
5137;SDS011;53959;53.626;11.410;2023-06-10T09:24:38;15.60;;;2.90;;
5137;SDS011;53959;53.626;11.410;2023-06-10T09:27:06;6.30;;;3.33;;
5137;SDS011;53959;53.626;11.410;2023-06-10T09:29:51;4.37;;;3.10;;
5137;SDS011;53959;53.626;11.410;2023-06-10T09:32:17;8.13;;;3.40;;
5137;SDS011;53959;53.626;11.410;2023-06-10T09:34:44;6.90;;;3.20;;
5137;SDS011;53959;53.626;11.410;2023-06-10T09:37:09;10.13;;;3.27;;
5137;SDS011;53959;53.626;11.410;2023-06-10T09:39:37;5.03;;;2.77;;
5137;SDS011;53959;53.626;11.410;2023-06-10T09:42:24;2.77;;;2.50;;
5137;SDS011;53959;53.626;11.410;2023-06-10T09:44:52;8.70;;;3.70;;
5137;SDS011;53959;53.626;11.410;2023-06-10T09:47:20;6.13;;;3.30;;
5137;SDS011;53959;53.626;11.410;2023-06-10T09:49:47;7.47;;;3.43;;
5137;SDS011;53959;53.626;11.410;2023-06-10T09:52:13;9.07;;;3.23;;
5137;SDS011;53959;53.626;11.410;2023-06-10T09:54:39;8.00;;;3.20;;
5137;SDS011;53959;53.626;11.410;2023-06-10T09:57:08;11.00;;;3.83;;
5137;SDS011;53959;53.626;11.410;2023-06-10T09:59:37;8.80;;;2.73;;
5137;SDS011;53959;53.626;11.410;2023-06-10T10:02:02;9.83;;;3.40;;
5137;SDS011;53959;53.626;11.410;2023-06-10T10:04:29;7.47;;;3.40;;
5137;SDS011;53959;53.626;11.410;2023-06-10T10:06:55;11.50;;;3.03;;
5137;SDS011;53959;53.626;11.410;2023-06-10T10:09:20;7.20;;;2.80;;
5137;SDS011;53959;53.626;11.410;2023-06-10T10:11:46;5.70;;;4.20;;
5137;SDS011;53959;53.626;11.410;2023-06-10T10:14:13;10.53;;;3.93;;
5137;SDS011;53959;53.626;11.410;2023-06-10T10:16:41;5.80;;;3.53;;
5137;SDS011;53959;53.626;11.410;2023-06-10T10:19:09;10.00;;;3.40;;
5137;SDS011;53959;53.626;11.410;2023-06-10T10:21:40;4.43;;;2.83;;
5137;SDS011;53959;53.626;11.410;2023-06-10T10:24:12;5.87;;;3.20;;
5137;SDS011;53959;53.626;11.410;2023-06-10T10:26:42;8.70;;;3.67;;
5137;SDS011;53959;53.626;11.410;2023-06-10T10:29:22;7.07;;;2.80;;
5137;SDS011;53959;53.626;11.410;2023-06-10T10:31:52;6.70;;;3.67;;
5137;SDS011;53959;53.626;11.410;2023-06-10T10:34:24;5.43;;;4.00;;
5137;SDS011;53959;53.626;11.410;2023-06-10T10:36:55;6.13;;;3.70;;
5137;SDS011;53959;53.626;11.410;2023-06-10T10:39:20;6.03;;;3.40;;
5137;SDS011;53959;53.626;11.410;2023-06-10T10:41:46;7.20;;;3.60;;
5137;SDS011;53959;53.626;11.410;2023-06-10T10:44:13;6.77;;;3.17;;
5137;SDS011;53959;53.626;11.410;2023-06-10T10:46:43;8.20;;;3.20;;
5137;SDS011;53959;53.626;11.410;2023-06-10T10:49:10;13.70;;;3.50;;
5137;SDS011;53959;53.626;11.410;2023-06-10T10:51:53;10.27;;;3.10;;
5137;SDS011;53959;53.626;11.410;2023-06-10T10:54:28;8.23;;;3.70;;
5137;SDS011;53959;53.626;11.410;2023-06-10T10:57:11;4.63;;;3.33;;
5137;SDS011;53959;53.626;11.410;2023-06-10T11:02:36;7.87;;;3.90;;
5137;SDS011;53959;53.626;11.410;2023-06-10T11:05:10;10.90;;;3.90;;
5137;SDS011;53959;53.626;11.410;2023-06-10T11:07:40;6.33;;;3.50;;
5137;SDS011;53959;53.626;11.410;2023-06-10T11:10:09;5.53;;;3.40;;
5137;SDS011;53959;53.626;11.410;2023-06-10T11:12:40;9.77;;;3.37;;
5137;SDS011;53959;53.626;11.410;2023-06-10T11:15:07;9.20;;;3.80;;
5137;SDS011;53959;53.626;11.410;2023-06-10T11:17:32;3.63;;;3.30;;
5137;SDS011;53959;53.626;11.410;2023-06-10T11:19:58;12.03;;;3.43;;
5137;SDS011;53959;53.626;11.410;2023-06-10T11:22:24;7.73;;;3.50;;
5137;SDS011;53959;53.626;11.410;2023-06-10T11:24:49;7.80;;;3.73;;
5137;SDS011;53959;53.626;11.410;2023-06-10T11:27:19;12.80;;;3.83;;
5137;SDS011;53959;53.626;11.410;2023-06-10T11:29:55;14.60;;;3.50;;
5137;SDS011;53959;53.626;11.410;2023-06-10T11:32:23;7.03;;;3.40;;
5137;SDS011;53959;53.626;11.410;2023-06-10T11:34:53;4.70;;;3.90;;
5137;SDS011;53959;53.626;11.410;2023-06-10T11:37:20;8.13;;;3.00;;
5137;SDS011;53959;53.626;11.410;2023-06-10T11:39:46;7.33;;;3.30;;
5137;SDS011;53959;53.626;11.410;2023-06-10T11:42:11;6.50;;;4.10;;
5137;SDS011;53959;53.626;11.410;2023-06-10T11:44:37;6.47;;;3.57;;
5137;SDS011;53959;53.626;11.410;2023-06-10T11:47:03;8.47;;;3.40;;
5137;SDS011;53959;53.626;11.410;2023-06-10T11:49:29;8.05;;;3.10;;
5137;SDS011;53959;53.626;11.410;2023-06-10T11:51:54;7.30;;;3.00;;
5137;SDS011;53959;53.626;11.410;2023-06-10T11:54:20;6.50;;;3.93;;
5137;SDS011;53959;53.626;11.410;2023-06-10T11:56:46;8.60;;;3.70;;
5137;SDS011;53959;53.626;11.410;2023-06-10T11:59:12;6.50;;;4.20;;
5137;SDS011;53959;53.626;11.410;2023-06-10T12:01:41;7.70;;;3.87;;
5137;SDS011;53959;53.626;11.410;2023-06-10T12:04:12;5.47;;;3.73;;
5137;SDS011;53959;53.626;11.410;2023-06-10T12:09:20;8.53;;;3.83;;
5137;SDS011;53959;53.626;11.410;2023-06-10T12:12:03;12.30;;;4.17;;
5137;SDS011;53959;53.626;11.410;2023-06-10T12:20:00;4.03;;;3.57;;
5137;SDS011;53959;53.626;11.410;2023-06-10T12:22:26;7.60;;;3.70;;
5137;SDS011;53959;53.626;11.410;2023-06-10T12:24:58;7.20;;;4.03;;
5137;SDS011;53959;53.626;11.410;2023-06-10T12:27:26;13.70;;;3.97;;
5137;SDS011;53959;53.626;11.410;2023-06-10T12:29:54;8.83;;;3.83;;
5137;SDS011;53959;53.626;11.410;2023-06-10T12:32:21;7.87;;;3.90;;
5137;SDS011;53959;53.626;11.410;2023-06-10T12:35:01;5.80;;;4.50;;
5137;SDS011;53959;53.626;11.410;2023-06-10T12:37:29;7.40;;;3.77;;
5137;SDS011;53959;53.626;11.410;2023-06-10T12:39:54;10.20;;;3.57;;
5137;SDS011;53959;53.626;11.410;2023-06-10T12:42:22;6.23;;;3.50;;
5137;SDS011;53959;53.626;11.410;2023-06-10T12:44:52;11.13;;;3.60;;
5137;SDS011;53959;53.626;11.410;2023-06-10T12:47:18;16.07;;;4.17;;
5137;SDS011;53959;53.626;11.410;2023-06-10T12:49:43;5.80;;;3.10;;
5137;SDS011;53959;53.626;11.410;2023-06-10T12:52:09;6.00;;;3.33;;
5137;SDS011;53959;53.626;11.410;2023-06-10T12:54:34;12.27;;;3.67;;
5137;SDS011;53959;53.626;11.410;2023-06-10T12:57:00;3.70;;;3.40;;
5137;SDS011;53959;53.626;11.410;2023-06-10T12:59:26;11.77;;;3.93;;
5137;SDS011;53959;53.626;11.410;2023-06-10T13:01:52;10.93;;;3.67;;
5137;SDS011;53959;53.626;11.410;2023-06-10T13:04:18;7.10;;;3.63;;
5137;SDS011;53959;53.626;11.410;2023-06-10T13:06:44;8.33;;;3.57;;
5137;SDS011;53959;53.626;11.410;2023-06-10T13:09:12;11.00;;;3.63;;
5137;SDS011;53959;53.626;11.410;2023-06-10T13:11:38;11.80;;;3.67;;
5137;SDS011;53959;53.626;11.410;2023-06-10T13:14:04;4.43;;;3.57;;
5137;SDS011;53959;53.626;11.410;2023-06-10T13:16:30;8.53;;;4.07;;
5137;SDS011;53959;53.626;11.410;2023-06-10T13:18:56;13.53;;;4.20;;
5137;SDS011;53959;53.626;11.410;2023-06-10T13:21:22;7.10;;;3.73;;
5137;SDS011;53959;53.626;11.410;2023-06-10T13:23:47;7.13;;;4.00;;
5137;SDS011;53959;53.626;11.410;2023-06-10T13:26:14;6.63;;;3.87;;
5137;SDS011;53959;53.626;11.410;2023-06-10T13:28:41;8.73;;;3.80;;
5137;SDS011;53959;53.626;11.410;2023-06-10T13:31:07;5.73;;;4.13;;
5137;SDS011;53959;53.626;11.410;2023-06-10T13:33:32;11.07;;;4.27;;
5137;SDS011;53959;53.626;11.410;2023-06-10T13:35:58;7.13;;;4.10;;
5137;SDS011;53959;53.626;11.410;2023-06-10T13:38:23;7.07;;;4.73;;
5137;SDS011;53959;53.626;11.410;2023-06-10T13:40:48;7.00;;;4.23;;
5137;SDS011;53959;53.626;11.410;2023-06-10T13:43:14;9.23;;;3.87;;
5137;SDS011;53959;53.626;11.410;2023-06-10T13:45:40;4.13;;;3.83;;
5137;SDS011;53959;53.626;11.410;2023-06-10T13:48:05;6.77;;;4.07;;
5137;SDS011;53959;53.626;11.410;2023-06-10T13:50:31;9.53;;;4.77;;
5137;SDS011;53959;53.626;11.410;2023-06-10T13:52:56;7.00;;;3.30;;
5137;SDS011;53959;53.626;11.410;2023-06-10T13:55:22;9.47;;;4.07;;
5137;SDS011;53959;53.626;11.410;2023-06-10T13:57:49;8.17;;;3.87;;
5137;SDS011;53959;53.626;11.410;2023-06-10T14:00:14;6.03;;;3.43;;
5137;SDS011;53959;53.626;11.410;2023-06-10T14:02:40;8.87;;;3.83;;
5137;SDS011;53959;53.626;11.410;2023-06-10T14:05:05;11.50;;;5.33;;
5137;SDS011;53959;53.626;11.410;2023-06-10T14:07:33;5.30;;;3.40;;
5137;SDS011;53959;53.626;11.410;2023-06-10T14:09:58;5.13;;;4.00;;
5137;SDS011;53959;53.626;11.410;2023-06-10T14:12:23;6.60;;;4.00;;
5137;SDS011;53959;53.626;11.410;2023-06-10T14:14:49;13.17;;;4.23;;
5137;SDS011;53959;53.626;11.410;2023-06-10T14:17:15;14.53;;;4.63;;
5137;SDS011;53959;53.626;11.410;2023-06-10T14:19:40;10.80;;;4.77;;
5137;SDS011;53959;53.626;11.410;2023-06-10T14:22:05;8.10;;;3.77;;
5137;SDS011;53959;53.626;11.410;2023-06-10T14:24:32;10.00;;;4.40;;
5137;SDS011;53959;53.626;11.410;2023-06-10T14:26:58;8.83;;;5.00;;
5137;SDS011;53959;53.626;11.410;2023-06-10T14:29:23;15.17;;;4.60;;
5137;SDS011;53959;53.626;11.410;2023-06-10T14:31:49;3.97;;;3.60;;
5137;SDS011;53959;53.626;11.410;2023-06-10T14:34:14;6.87;;;4.27;;
5137;SDS011;53959;53.626;11.410;2023-06-10T14:36:40;6.73;;;4.17;;
5137;SDS011;53959;53.626;11.410;2023-06-10T14:39:05;9.67;;;4.30;;
5137;SDS011;53959;53.626;11.410;2023-06-10T14:41:31;3.90;;;3.53;;
5137;SDS011;53959;53.626;11.410;2023-06-10T14:43:56;6.13;;;3.23;;
5137;SDS011;53959;53.626;11.410;2023-06-10T14:46:21;7.50;;;3.10;;
5137;SDS011;53959;53.626;11.410;2023-06-10T14:48:47;9.17;;;3.20;;
5137;SDS011;53959;53.626;11.410;2023-06-10T14:51:12;9.97;;;3.20;;
5137;SDS011;53959;53.626;11.410;2023-06-10T14:53:38;5.40;;;3.53;;
5137;SDS011;53959;53.626;11.410;2023-06-10T14:56:03;8.90;;;3.43;;